createdAt,value
2018-01-27T00:02:00.471Z,7.30
2018-01-27T00:04:28.583Z,7.40
2018-01-27T00:06:56.747Z,7.40
2018-01-27T00:09:24.873Z,7.40
2018-01-27T00:11:52.975Z,7.40
2018-01-27T00:14:21.089Z,7.40
2018-01-27T00:16:49.999Z,7.40
2018-01-27T00:19:18.129Z,7.40
2018-01-27T00:21:46.287Z,7.40
2018-01-27T00:24:14.399Z,7.30
2018-01-27T00:26:43.283Z,7.30
2018-01-27T00:29:12.175Z,7.20
2018-01-27T00:31:41.065Z,7.20
2018-01-27T00:34:09.951Z,7.20
2018-01-27T00:36:38.846Z,7.20
2018-01-27T00:39:07.751Z,7.20
2018-01-27T00:41:35.875Z,7.20
2018-01-27T00:44:04.787Z,7.20
2018-01-27T00:46:33.689Z,7.20
2018-01-27T00:49:01.879Z,7.20
2018-01-27T00:51:30.007Z,7.20
2018-01-27T00:53:58.227Z,7.20
2018-01-27T00:56:27.094Z,7.20
2018-01-27T00:58:55.987Z,7.30
2018-01-27T01:01:24.883Z,7.30
2018-01-27T01:03:53.759Z,7.30
2018-01-27T01:06:21.900Z,7.20
2018-01-27T01:08:50.006Z,7.30
2018-01-27T01:11:18.127Z,7.30
2018-01-27T01:13:46.242Z,7.30
2018-01-27T01:16:14.355Z,7.40
2018-01-27T01:18:42.473Z,7.40
2018-01-27T01:21:10.614Z,7.40
2018-01-27T01:23:38.728Z,7.40
2018-01-27T01:26:06.840Z,7.50
2018-01-27T01:28:35.008Z,7.50
2018-01-27T01:31:03.154Z,7.50
2018-01-27T01:33:31.272Z,7.50
2018-01-27T01:35:59.406Z,7.50
2018-01-27T01:38:28.298Z,7.50
2018-01-27T01:40:57.190Z,7.50
2018-01-27T01:46:26.214Z,7.50
2018-01-27T01:49:20.826Z,7.50
2018-01-27T01:51:49.084Z,7.50
2018-01-27T01:54:18.248Z,7.40
2018-01-27T01:56:46.336Z,7.40
2018-01-27T01:59:14.550Z,7.40
2018-01-27T02:01:43.424Z,7.30
2018-01-27T02:04:11.534Z,7.30
2018-01-27T02:06:39.660Z,7.30
2018-01-27T02:09:08.550Z,7.30
2018-01-27T02:11:36.702Z,7.20
2018-01-27T02:14:04.902Z,7.20
2018-01-27T02:16:33.009Z,7.20
2018-01-27T02:19:01.176Z,7.10
2018-01-27T02:21:29.302Z,7.10
2018-01-27T02:23:58.180Z,7.00
2018-01-27T02:26:26.382Z,7.00
2018-01-27T02:28:55.271Z,6.90
2018-01-27T02:31:24.265Z,6.90
2018-01-27T02:33:53.143Z,6.80
2018-01-27T02:36:22.016Z,6.80
2018-01-27T02:38:51.749Z,6.80
2018-01-27T02:41:20.680Z,6.80
2018-01-27T02:43:48.804Z,6.80
2018-01-27T02:46:17.706Z,6.70
2018-01-27T02:48:46.596Z,6.70
2018-01-27T02:51:15.508Z,6.70
2018-01-27T02:53:43.660Z,6.60
2018-01-27T02:56:12.553Z,6.60
2018-01-27T02:58:40.683Z,6.60
2018-01-27T03:01:08.806Z,6.60
2018-01-27T03:03:36.930Z,6.60
2018-01-27T03:06:05.031Z,6.60
2018-01-27T03:08:33.919Z,6.60
2018-01-27T03:11:02.821Z,6.50
2018-01-27T03:13:31.689Z,6.50
2018-01-27T03:15:59.835Z,6.50
2018-01-27T03:18:27.944Z,6.50
2018-01-27T03:20:56.843Z,6.50
2018-01-27T03:23:25.715Z,6.50
2018-01-27T03:25:53.912Z,6.50
2018-01-27T03:28:22.807Z,6.50
2018-01-27T03:30:50.936Z,6.50
2018-01-27T03:33:19.047Z,6.50
2018-01-27T03:35:47.953Z,6.50
2018-01-27T03:38:16.063Z,6.50
2018-01-27T03:40:44.175Z,6.50
2018-01-27T03:43:13.059Z,6.50
2018-01-27T03:45:41.985Z,6.50
2018-01-27T03:48:10.087Z,6.50
2018-01-27T03:50:38.211Z,6.50
2018-01-27T03:53:07.087Z,6.50
2018-01-27T03:55:35.959Z,6.60
2018-01-27T03:58:04.891Z,6.60
2018-01-27T04:00:33.003Z,6.50
2018-01-27T04:03:01.123Z,6.50
2018-01-27T04:05:30.015Z,6.60
2018-01-27T04:07:58.183Z,6.50
2018-01-27T04:10:27.061Z,6.60
2018-01-27T04:12:55.954Z,6.60
2018-01-27T04:15:24.830Z,6.60
2018-01-27T04:17:52.966Z,6.60
2018-01-27T04:20:21.414Z,6.60
2018-01-27T04:22:50.271Z,6.60
2018-01-27T04:25:18.387Z,6.60
2018-01-27T04:27:46.586Z,6.60
2018-01-27T04:30:15.424Z,6.60
2018-01-27T04:32:44.320Z,6.60
2018-01-27T04:35:13.197Z,6.60
2018-01-27T04:37:42.078Z,6.60
2018-01-27T04:40:10.200Z,6.60
2018-01-27T04:42:38.367Z,6.60
2018-01-27T04:45:06.458Z,6.60
2018-01-27T04:47:34.587Z,6.60
2018-01-27T04:50:03.488Z,6.60
2018-01-27T04:52:31.614Z,6.60
2018-01-27T04:54:59.724Z,6.60
2018-01-27T04:57:28.614Z,6.60
2018-01-27T04:59:57.498Z,6.60
2018-01-27T05:02:26.376Z,6.60
2018-01-27T05:04:54.497Z,6.60
2018-01-27T05:07:22.654Z,6.60
2018-01-27T05:09:51.512Z,6.60
2018-01-27T05:12:19.658Z,6.60
2018-01-27T05:14:47.766Z,6.60
2018-01-27T05:17:16.668Z,6.70
2018-01-27T05:19:45.563Z,6.70
2018-01-27T05:22:13.678Z,6.60
2018-01-27T05:24:41.790Z,6.70
2018-01-27T05:27:10.662Z,6.70
2018-01-27T05:29:38.785Z,6.70
2018-01-27T05:32:06.936Z,6.70
2018-01-27T05:34:35.104Z,6.70
2018-01-27T05:37:03.980Z,6.70
2018-01-27T05:39:32.870Z,6.70
2018-01-27T05:42:01.058Z,6.70
2018-01-27T05:44:29.960Z,6.70
2018-01-27T05:46:58.836Z,6.70
2018-01-27T05:49:27.717Z,6.70
2018-01-27T05:51:56.733Z,6.70
2018-01-27T05:54:25.632Z,6.70
2018-01-27T05:56:53.788Z,6.70
2018-01-27T05:59:22.705Z,6.70
2018-01-27T06:01:50.812Z,6.70
2018-01-27T06:04:18.924Z,6.70
2018-01-27T06:06:47.919Z,6.70
2018-01-27T06:09:16.092Z,6.70
2018-01-27T06:11:44.993Z,6.70
2018-01-27T06:14:13.107Z,6.70
2018-01-27T06:16:41.215Z,6.70
2018-01-27T06:19:10.106Z,6.70
2018-01-27T06:21:38.999Z,6.80
2018-01-27T06:24:07.875Z,6.80
2018-01-27T06:26:35.983Z,6.80
2018-01-27T06:29:04.124Z,6.80
2018-01-27T06:31:32.253Z,6.80
2018-01-27T06:34:00.381Z,6.80
2018-01-27T06:36:29.267Z,6.80
2018-01-27T06:38:58.179Z,6.80
2018-01-27T06:41:26.339Z,6.80
2018-01-27T06:43:55.219Z,6.90
2018-01-27T06:46:24.097Z,6.90
2018-01-27T06:48:52.291Z,6.80
2018-01-27T06:51:21.185Z,6.90
2018-01-27T06:53:50.091Z,6.90
2018-01-27T06:56:18.199Z,6.90
2018-01-27T06:58:46.313Z,6.90
2018-01-27T07:01:15.311Z,6.90
2018-01-27T07:03:44.195Z,7.00
2018-01-27T07:06:13.071Z,7.00
2018-01-27T07:08:42.095Z,7.00
2018-01-27T07:11:10.219Z,6.90
2018-01-27T07:13:38.391Z,7.00
2018-01-27T07:16:08.274Z,7.00
2018-01-27T07:18:36.419Z,7.00
2018-01-27T07:21:04.547Z,7.00
2018-01-27T07:23:32.723Z,7.00
2018-01-27T07:26:00.839Z,7.10
2018-01-27T07:28:28.958Z,7.10
2018-01-27T07:30:57.282Z,7.10
2018-01-27T07:33:26.186Z,7.10
2018-01-27T07:35:54.370Z,7.10
2018-01-27T07:38:22.478Z,7.10
2018-01-27T07:40:50.694Z,7.20
2018-01-27T07:43:19.686Z,7.20
2018-01-27T07:45:47.807Z,7.20
2018-01-27T07:48:15.926Z,7.20
2018-01-27T07:50:44.834Z,7.20
2018-01-27T07:53:12.964Z,7.20
2018-01-27T07:55:41.167Z,7.20
2018-01-27T07:58:10.054Z,7.20
2018-01-27T08:00:38.938Z,7.20
2018-01-27T08:03:07.872Z,7.30
2018-01-27T08:05:36.012Z,7.20
2018-01-27T08:08:04.910Z,7.20
2018-01-27T08:10:33.042Z,7.20
2018-01-27T08:13:01.154Z,7.20
2018-01-27T08:15:29.270Z,7.20
2018-01-27T08:17:57.386Z,7.20
2018-01-27T08:20:26.261Z,7.20
2018-01-27T08:22:54.390Z,7.20
2018-01-27T08:25:22.622Z,7.30
2018-01-27T08:27:51.514Z,7.30
2018-01-27T08:30:20.508Z,7.30
2018-01-27T08:32:49.202Z,7.30
2018-01-27T08:35:17.338Z,7.40
2018-01-27T08:37:45.452Z,7.40
2018-01-27T08:40:13.561Z,7.40
2018-01-27T08:42:41.696Z,7.50
2018-01-27T08:45:09.824Z,7.50
2018-01-27T08:47:37.962Z,7.50
2018-01-27T08:50:06.076Z,7.60
2018-01-27T08:52:34.211Z,7.60
2018-01-27T08:55:02.344Z,7.70
2018-01-27T08:57:31.228Z,7.70
2018-01-27T09:00:00.222Z,7.80
2018-01-27T09:02:29.188Z,7.80
2018-01-27T09:04:57.314Z,7.80
2018-01-27T09:07:25.444Z,7.80
2018-01-27T09:09:54.340Z,7.90
2018-01-27T09:12:23.667Z,7.90
2018-01-27T09:14:51.856Z,7.90
2018-01-27T09:17:19.962Z,8.00
2018-01-27T09:19:48.137Z,8.00
2018-01-27T09:22:16.252Z,8.00
2018-01-27T09:24:45.244Z,8.10
2018-01-27T09:27:13.422Z,8.10
2018-01-27T09:29:41.532Z,8.20
2018-01-27T09:32:09.762Z,8.20
2018-01-27T09:34:38.760Z,8.30
2018-01-27T09:37:07.648Z,8.30
2018-01-27T09:39:35.823Z,8.30
2018-01-27T09:42:04.755Z,8.40
2018-01-27T09:44:32.883Z,8.40
2018-01-27T09:47:01.760Z,8.40
2018-01-27T09:49:29.903Z,8.40
2018-01-27T09:51:58.076Z,8.40
2018-01-27T09:54:26.395Z,8.40
2018-01-27T09:56:55.267Z,8.50
2018-01-27T09:59:24.179Z,8.50
2018-01-27T10:01:52.331Z,8.50
2018-01-27T10:04:22.008Z,8.50
2018-01-27T10:06:50.216Z,8.50
2018-01-27T10:09:18.328Z,8.50
2018-01-27T10:11:46.479Z,8.60
2018-01-27T10:14:15.387Z,8.60
2018-01-27T10:16:43.751Z,8.60
2018-01-27T10:19:11.869Z,8.60
2018-01-27T10:21:40.003Z,8.60
2018-01-27T10:24:08.132Z,8.60
2018-01-27T10:26:36.255Z,8.70
2018-01-27T10:29:04.391Z,8.70
2018-01-27T10:31:33.422Z,8.80
2018-01-27T10:34:01.543Z,8.70
2018-01-27T10:36:29.707Z,8.70
2018-01-27T10:38:57.851Z,8.70
2018-01-27T10:41:26.015Z,8.70
2018-01-27T10:43:54.135Z,8.80
2018-01-27T10:46:22.291Z,8.80
2018-01-27T10:48:50.411Z,8.80
2018-01-27T10:51:19.302Z,8.80
2018-01-27T10:53:48.191Z,8.80
2018-01-27T10:56:17.081Z,8.80
2018-01-27T10:58:45.967Z,8.80
2018-01-27T11:01:14.875Z,8.80
2018-01-27T11:03:42.992Z,8.80
2018-01-27T11:06:11.319Z,8.80
2018-01-27T11:08:39.431Z,8.90
2018-01-27T11:11:07.574Z,8.90
2018-01-27T11:13:37.333Z,8.90
2018-01-27T11:16:05.425Z,8.90
2018-01-27T11:18:34.324Z,8.80
2018-01-27T11:21:03.223Z,8.80
2018-01-27T11:23:32.099Z,8.80
2018-01-27T11:26:00.975Z,8.80
2018-01-27T11:28:30.027Z,8.90
2018-01-27T11:30:58.114Z,8.80
2018-01-27T11:33:26.232Z,8.90
2018-01-27T11:35:55.238Z,8.90
2018-01-27T11:38:23.387Z,8.90
2018-01-27T11:40:51.591Z,9.00
2018-01-27T11:43:19.754Z,8.90
2018-01-27T11:45:48.647Z,9.00
2018-01-27T11:48:16.761Z,9.00
2018-01-27T11:50:44.878Z,9.00
2018-01-27T11:53:13.775Z,9.10
2018-01-27T11:55:42.875Z,9.20
2018-01-27T11:58:11.181Z,9.20
2018-01-27T12:00:39.283Z,9.30
2018-01-27T12:03:07.407Z,9.30
2018-01-27T12:05:35.597Z,9.20
2018-01-27T12:08:03.775Z,9.30
2018-01-27T12:10:31.945Z,9.30
2018-01-27T12:13:00.093Z,9.40
2018-01-27T12:15:28.987Z,9.50
2018-01-27T12:17:57.143Z,9.50
2018-01-27T12:20:26.031Z,9.70
2018-01-27T12:22:54.939Z,9.70
2018-01-27T12:25:23.110Z,9.70
2018-01-27T12:27:51.992Z,9.60
2018-01-27T12:30:21.301Z,9.60
2018-01-27T12:32:50.184Z,9.50
2018-01-27T12:35:19.114Z,9.40
2018-01-27T12:37:47.258Z,9.40
2018-01-27T12:40:15.434Z,9.40
2018-01-27T12:42:43.598Z,9.30
2018-01-27T12:45:11.724Z,9.30
2018-01-27T12:47:39.842Z,9.20
2018-01-27T12:50:08.848Z,9.20
2018-01-27T12:52:36.968Z,9.20
2018-01-27T12:55:05.228Z,9.20
2018-01-27T12:57:33.334Z,9.30
2018-01-27T13:00:01.458Z,9.30
2018-01-27T13:02:29.574Z,9.30
2018-01-27T13:04:58.468Z,9.30
2018-01-27T13:07:27.380Z,9.20
2018-01-27T13:09:56.265Z,9.20
2018-01-27T13:12:25.135Z,9.10
2018-01-27T13:14:54.110Z,9.10
2018-01-27T13:17:22.221Z,9.10
2018-01-27T13:19:51.147Z,9.00
2018-01-27T13:22:19.271Z,9.00
2018-01-27T13:24:47.405Z,9.00
2018-01-27T13:27:16.312Z,9.00
2018-01-27T13:29:44.435Z,9.00
2018-01-27T13:32:12.607Z,9.00
2018-01-27T13:34:40.789Z,9.10
2018-01-27T13:37:08.927Z,9.10
2018-01-27T13:39:37.835Z,8.90
2018-01-27T13:42:06.015Z,8.90
2018-01-27T13:44:34.155Z,8.90
2018-01-27T13:47:03.040Z,8.90
2018-01-27T13:49:31.207Z,8.90
2018-01-27T13:51:59.319Z,9.00
2018-01-27T13:54:27.427Z,9.00
2018-01-27T13:56:55.601Z,9.00
2018-01-27T13:59:23.778Z,9.00
2018-01-27T14:01:51.982Z,9.00
2018-01-27T14:04:20.141Z,9.00
2018-01-27T14:06:48.263Z,9.00
2018-01-27T14:09:16.397Z,9.00
2018-01-27T14:11:44.521Z,9.00
2018-01-27T14:14:12.685Z,9.00
2018-01-27T14:16:40.823Z,9.00
2018-01-27T14:19:09.023Z,8.90
2018-01-27T14:21:37.926Z,8.90
2018-01-27T14:24:06.064Z,8.90
2018-01-27T14:26:34.990Z,8.90
2018-01-27T14:29:03.158Z,8.90
2018-01-27T14:31:31.323Z,8.90
2018-01-27T14:33:59.428Z,8.90
2018-01-27T14:36:41.462Z,8.80
2018-01-27T14:39:09.699Z,8.80
2018-01-27T14:41:38.031Z,8.80
2018-01-27T14:44:06.915Z,8.70
2018-01-27T14:46:35.832Z,8.70
2018-01-27T14:49:04.083Z,8.70
2018-01-27T14:51:32.202Z,8.70
2018-01-27T14:54:00.306Z,8.60
2018-01-27T14:56:28.426Z,8.50
2018-01-27T14:58:56.548Z,8.40
2018-01-27T15:01:24.714Z,8.40
2018-01-27T15:03:52.826Z,8.30
2018-01-27T15:06:21.734Z,8.30
2018-01-27T15:08:49.846Z,8.30
2018-01-27T15:11:17.962Z,8.30
2018-01-27T15:13:46.902Z,8.30
2018-01-27T15:16:15.168Z,8.30
2018-01-27T15:18:43.328Z,8.30
2018-01-27T15:21:11.442Z,8.20
2018-01-27T15:23:39.580Z,8.20
2018-01-27T15:26:07.741Z,8.20
2018-01-27T15:28:35.904Z,8.10
2018-01-27T15:31:04.792Z,8.20
2018-01-27T15:33:33.680Z,8.10
2018-01-27T15:36:02.784Z,8.10
2018-01-27T15:38:30.910Z,8.00
2018-01-27T15:40:59.038Z,8.00
2018-01-27T15:43:27.241Z,8.00
2018-01-27T15:45:55.376Z,7.90
2018-01-27T15:48:23.488Z,8.00
2018-01-27T15:50:51.733Z,7.90
2018-01-27T15:53:19.834Z,7.90
2018-01-27T15:55:47.956Z,7.80
2018-01-27T15:58:16.880Z,7.70
2018-01-27T16:00:45.758Z,7.70
2018-01-27T16:03:13.909Z,7.60
2018-01-27T16:05:42.852Z,7.60
2018-01-27T16:08:11.092Z,7.60
2018-01-27T16:10:39.220Z,7.50
2018-01-27T16:13:07.324Z,7.40
2018-01-27T16:15:36.260Z,7.30
2018-01-27T16:18:04.529Z,7.30
2018-01-27T16:20:32.667Z,7.30
2018-01-27T16:23:01.542Z,7.20
2018-01-27T16:25:30.486Z,7.10
2018-01-27T16:27:58.618Z,7.10
2018-01-27T16:30:27.491Z,7.10
2018-01-27T16:32:56.386Z,7.00
2018-01-27T16:35:25.271Z,7.00
2018-01-27T16:37:53.443Z,7.00
2018-01-27T16:40:22.919Z,6.90
2018-01-27T16:42:51.096Z,7.00
2018-01-27T16:45:19.232Z,6.90
2018-01-27T16:47:47.363Z,6.90
2018-01-27T16:50:15.468Z,6.90
2018-01-27T16:52:43.661Z,6.90
2018-01-27T16:55:11.806Z,6.90
2018-01-27T16:57:40.699Z,6.80
2018-01-27T17:00:08.844Z,6.80
2018-01-27T17:02:36.949Z,6.80
2018-01-27T17:05:05.079Z,6.80
2018-01-27T17:07:33.251Z,6.80
2018-01-27T17:10:01.363Z,6.80
2018-01-27T17:12:29.475Z,6.80
2018-01-27T17:14:57.711Z,6.80
2018-01-27T17:17:25.851Z,6.70
2018-01-27T17:19:53.965Z,6.70
2018-01-27T17:22:22.109Z,6.70
2018-01-27T17:24:50.987Z,6.70
2018-01-27T17:27:19.099Z,6.70
2018-01-27T17:29:47.219Z,6.70
2018-01-27T17:32:15.381Z,6.70
2018-01-27T17:34:43.470Z,6.70
2018-01-27T17:37:12.391Z,6.70
2018-01-27T17:39:41.267Z,6.70
2018-01-27T17:42:10.181Z,6.60
2018-01-27T17:44:38.351Z,6.60
2018-01-27T17:47:06.509Z,6.60
2018-01-27T17:49:34.659Z,6.70
2018-01-27T17:52:02.767Z,6.70
2018-01-27T17:54:30.950Z,6.70
2018-01-27T17:56:59.113Z,6.70
2018-01-27T17:59:27.322Z,6.70
2018-01-27T18:01:55.429Z,6.70
2018-01-27T18:04:23.731Z,6.70
2018-01-27T18:06:52.631Z,6.80
2018-01-27T18:09:20.763Z,6.80
2018-01-27T18:11:48.887Z,6.80
2018-01-27T18:14:17.059Z,6.80
2018-01-27T18:16:46.321Z,6.70
2018-01-27T18:19:15.521Z,6.70
2018-01-27T18:21:44.422Z,6.80
2018-01-27T18:24:13.358Z,6.80
2018-01-27T18:26:41.495Z,6.80
2018-01-27T18:29:09.631Z,6.80
2018-01-27T18:31:37.751Z,6.80
2018-01-27T18:34:05.870Z,6.80
2018-01-27T18:36:34.195Z,6.90
2018-01-27T18:39:02.337Z,6.80
2018-01-27T18:41:30.542Z,6.90
2018-01-27T18:43:58.719Z,6.80
2018-01-27T18:46:26.909Z,6.90
2018-01-27T18:48:55.058Z,6.90
2018-01-27T18:51:23.175Z,6.90
2018-01-27T18:53:51.412Z,6.90
2018-01-27T18:56:19.780Z,7.00
2018-01-27T18:58:48.687Z,7.00
2018-01-27T19:01:16.805Z,7.00
2018-01-27T19:03:44.950Z,7.00
2018-01-27T19:06:13.090Z,7.00
2018-01-27T19:08:41.268Z,7.00
2018-01-27T19:11:09.384Z,7.00
2018-01-27T19:13:37.498Z,7.00
2018-01-27T19:16:06.431Z,7.00
2018-01-27T19:18:34.561Z,7.00
2018-01-27T19:21:03.460Z,7.00
2018-01-27T19:23:32.345Z,7.10
2018-01-27T19:26:01.264Z,7.00
2018-01-27T19:28:29.410Z,7.10
2018-01-27T19:30:58.300Z,7.00
2018-01-27T19:33:27.232Z,7.00
2018-01-27T19:35:55.342Z,7.00
2018-01-27T19:38:24.323Z,7.10
2018-01-27T19:40:52.437Z,7.10
2018-01-27T19:43:21.308Z,7.10
2018-01-27T19:45:49.692Z,7.10
2018-01-27T19:48:18.594Z,7.20
2018-01-27T19:50:46.714Z,7.20
2018-01-27T19:53:14.836Z,7.20
2018-01-27T19:55:43.028Z,7.10
2018-01-27T19:58:11.191Z,7.20
2018-01-27T20:00:39.300Z,7.20
2018-01-27T20:03:07.410Z,7.20
2018-01-27T20:05:35.593Z,7.10
2018-01-27T20:08:04.495Z,7.20
2018-01-27T20:10:32.616Z,7.20
2018-01-27T20:13:00.833Z,7.20
2018-01-27T20:15:28.963Z,7.20
2018-01-27T20:17:57.158Z,7.20
2018-01-27T20:20:26.084Z,7.30
2018-01-27T20:22:54.187Z,7.30
2018-01-27T20:25:22.384Z,7.30
2018-01-27T20:27:50.503Z,7.30
2018-01-27T20:30:18.614Z,7.30
2018-01-27T20:32:46.720Z,7.30
2018-01-27T20:35:15.611Z,7.40
2018-01-27T20:37:44.489Z,7.40
2018-01-27T20:40:12.623Z,7.50
2018-01-27T20:42:40.743Z,7.50
2018-01-27T20:45:09.660Z,7.50
2018-01-27T20:47:37.801Z,7.50
2018-01-27T20:50:06.693Z,7.50
2018-01-27T20:52:34.813Z,7.50
2018-01-27T20:55:02.955Z,7.50
2018-01-27T20:57:31.843Z,7.60
2018-01-27T21:00:00.723Z,7.60
2018-01-27T21:02:29.595Z,7.60
2018-01-27T21:04:57.705Z,7.60
2018-01-27T21:07:25.883Z,7.60
2018-01-27T21:09:54.183Z,7.60
2018-01-27T21:12:22.321Z,7.50
2018-01-27T21:14:51.227Z,7.60
2018-01-27T21:17:19.391Z,7.50
2018-01-27T21:19:47.507Z,7.60
2018-01-27T21:22:15.619Z,7.60
2018-01-27T21:24:44.519Z,7.60
2018-01-27T21:27:13.398Z,7.60
2018-01-27T21:29:42.291Z,7.60
2018-01-27T21:32:11.199Z,7.60
2018-01-27T21:34:39.307Z,7.60
2018-01-27T21:37:07.474Z,7.60
2018-01-27T21:39:35.615Z,7.60
2018-01-27T21:42:03.725Z,7.50
2018-01-27T21:44:31.830Z,7.50
2018-01-27T21:47:01.466Z,7.40
2018-01-27T21:49:29.591Z,7.40
2018-01-27T21:51:57.702Z,7.40
2018-01-27T21:54:26.583Z,7.40
2018-01-27T21:56:55.500Z,7.40
2018-01-27T21:59:23.627Z,7.30
2018-01-27T22:01:51.743Z,7.30
2018-01-27T22:04:19.882Z,7.20
2018-01-27T22:06:48.074Z,7.20
2018-01-27T22:09:16.971Z,7.00
2018-01-27T22:11:45.133Z,7.00
2018-01-27T22:14:13.271Z,6.90
2018-01-27T22:16:41.442Z,6.90
2018-01-27T22:19:09.536Z,6.80
2018-01-27T22:21:37.646Z,6.80
2018-01-27T22:24:05.758Z,6.70
2018-01-27T22:26:33.930Z,6.70
2018-01-27T22:29:02.055Z,6.80
2018-01-27T22:31:30.162Z,6.70
2018-01-27T22:33:58.286Z,6.70
2018-01-27T22:36:27.166Z,6.70
2018-01-27T22:38:55.328Z,6.70
2018-01-27T22:41:23.442Z,6.70
2018-01-27T22:43:51.570Z,6.70
2018-01-27T22:46:19.701Z,6.70
2018-01-27T22:48:47.844Z,6.70
2018-01-27T22:51:16.726Z,6.70
2018-01-27T22:53:45.634Z,6.70
2018-01-27T22:56:13.758Z,6.70
2018-01-27T22:58:41.892Z,6.80
2018-01-27T23:01:15.636Z,6.80
2018-01-27T23:03:43.746Z,6.80
2018-01-27T23:06:11.854Z,6.80
2018-01-27T23:08:40.100Z,6.80
2018-01-27T23:11:08.225Z,6.80
2018-01-27T23:13:36.334Z,6.80
2018-01-27T23:16:05.434Z,6.80
2018-01-27T23:18:33.545Z,6.80
2018-01-27T23:21:01.764Z,6.90
2018-01-27T23:23:29.923Z,6.90
2018-01-27T23:25:58.134Z,6.90
2018-01-27T23:28:26.304Z,6.90
2018-01-27T23:30:54.435Z,6.90
2018-01-27T23:33:22.540Z,6.90
2018-01-27T23:35:51.416Z,6.90
2018-01-27T23:38:20.426Z,6.90
2018-01-27T23:40:48.567Z,6.90
2018-01-27T23:43:16.681Z,6.90
2018-01-27T23:45:44.782Z,6.90
2018-01-27T23:48:12.914Z,6.90
2018-01-27T23:50:41.863Z,7.00
2018-01-27T23:53:10.766Z,6.90
2018-01-27T23:55:38.880Z,6.90
2018-01-27T23:58:06.996Z,7.00
